Time;durP1;ratioP1;P1;durP2;ratioP2;P2;SDS_P1;SDS_P2;PMS_P1;PMS_P2;Temp;Humidity;BMP_temperature;BMP_pressure;BME280_temperature;BME280_humidity;BME280_pressure;Samples;Min_cycle;Max_cycle;Signal;HPM_P1;HPM_P2
2021/12/12 00:00:48;;;;;;;52.28;28.30;;;3.80;99.90;;;;;;5113677;28;20040;-61
2021/12/12 00:03:32;;;;;;;55.45;29.23;;;3.80;99.90;;;;;;5113801;28;20396;-61
2021/12/12 00:05:59;;;;;;;56.35;28.23;;;3.80;99.90;;;;;;5113715;28;20059;-61
2021/12/12 00:08:25;;;;;;;52.00;28.83;;;3.90;99.90;;;;;;5113755;28;20061;-61
2021/12/12 00:11:14;;;;;;;56.45;29.05;;;3.90;99.90;;;;;;5113754;28;20154;-61
2021/12/12 00:14:00;;;;;;;47.15;28.40;;;3.90;99.90;;;;;;5113552;28;20861;-61
2021/12/12 00:16:26;;;;;;;51.50;28.73;;;3.90;99.90;;;;;;5113538;28;20092;-61
2021/12/12 00:18:52;;;;;;;55.05;27.67;;;3.90;99.90;;;;;;5113275;28;20035;-61
2021/12/12 00:21:20;;;;;;;54.65;27.95;;;4.00;99.90;;;;;;5113310;28;20032;-61
2021/12/12 00:23:46;;;;;;;50.97;27.13;;;3.90;99.90;;;;;;5111550;28;20567;-61
2021/12/12 00:26:12;;;;;;;59.63;29.25;;;4.00;99.90;;;;;;5113428;28;20035;-62
2021/12/12 00:28:39;;;;;;;52.22;29.35;;;4.00;99.90;;;;;;5113161;28;20543;-61
2021/12/12 00:31:10;;;;;;;47.63;28.17;;;4.00;99.90;;;;;;5113429;28;20114;-61
2021/12/12 00:33:38;;;;;;;51.72;28.13;;;4.00;99.90;;;;;;5113387;28;20078;-61
2021/12/12 00:36:05;;;;;;;51.63;28.48;;;4.00;99.90;;;;;;5112683;28;20040;-61
2021/12/12 00:38:33;;;;;;;48.97;28.80;;;4.00;99.90;;;;;;5113388;28;20043;-61
2021/12/12 00:41:07;;;;;;;46.40;28.85;;;4.00;99.90;;;;;;5113144;28;20042;-61
2021/12/12 00:43:53;;;;;;;51.92;27.20;;;4.00;99.90;;;;;;5113010;28;20040;-61
2021/12/12 00:46:22;;;;;;;54.13;27.98;;;4.00;99.90;;;;;;5112551;28;20083;-61
2021/12/12 00:48:48;;;;;;;50.60;29.60;;;4.00;99.90;;;;;;5112995;28;20380;-62
2021/12/12 00:51:19;;;;;;;52.22;27.80;;;4.00;99.90;;;;;;5112983;28;20039;-61
2021/12/12 00:53:45;;;;;;;49.90;30.23;;;4.00;99.90;;;;;;5112888;27;20047;-61
2021/12/12 00:56:12;;;;;;;58.95;30.52;;;4.00;99.90;;;;;;5112700;28;20119;-61
2021/12/12 00:58:37;;;;;;;55.05;29.83;;;4.00;99.90;;;;;;5112664;28;20044;-61
2021/12/12 01:01:12;;;;;;;51.65;30.95;;;4.00;99.90;;;;;;5112645;28;20087;-61
2021/12/12 01:03:42;;;;;;;56.85;30.38;;;4.00;99.90;;;;;;5112919;28;20164;-62
2021/12/12 01:06:12;;;;;;;53.17;29.90;;;4.10;99.90;;;;;;5112603;28;20126;-61
2021/12/12 01:08:39;;;;;;;57.35;30.67;;;4.10;99.90;;;;;;5112886;28;20061;-61
2021/12/12 01:11:11;;;;;;;54.45;30.55;;;4.10;99.90;;;;;;5112678;28;20128;-61
2021/12/12 01:13:37;;;;;;;51.40;30.33;;;4.10;99.90;;;;;;5112484;28;20031;-61
2021/12/12 01:16:12;;;;;;;52.42;29.83;;;4.10;99.90;;;;;;5112641;28;20039;-61
2021/12/12 01:18:45;;;;;;;51.08;30.80;;;4.10;99.90;;;;;;5112653;28;20039;-61
2021/12/12 01:21:16;;;;;;;47.63;30.40;;;4.10;99.90;;;;;;5112471;28;20157;-61
2021/12/12 01:23:50;;;;;;;53.10;30.15;;;4.10;99.90;;;;;;5112308;28;20036;-61
2021/12/12 01:26:17;;;;;;;50.60;29.67;;;4.10;99.90;;;;;;5112509;28;20058;-62
2021/12/12 01:28:45;;;;;;;56.50;31.85;;;4.10;99.90;;;;;;5112285;28;20485;-62
2021/12/12 01:31:16;;;;;;;55.40;29.58;;;4.10;99.90;;;;;;5112286;28;20044;-61
2021/12/12 01:33:42;;;;;;;60.58;31.17;;;4.10;99.90;;;;;;5112129;28;20039;-62
2021/12/12 01:36:28;;;;;;;53.75;31.10;;;4.10;99.90;;;;;;5112169;28;20036;-61
2021/12/12 01:38:58;;;;;;;53.10;29.95;;;4.10;99.90;;;;;;5112433;28;20031;-62
2021/12/12 01:41:26;;;;;;;56.83;31.30;;;4.10;99.90;;;;;;5112324;28;20424;-62
2021/12/12 01:43:58;;;;;;;53.97;31.95;;;4.10;99.90;;;;;;5112297;28;20035;-62
2021/12/12 01:46:32;;;;;;;56.17;32.22;;;4.20;99.90;;;;;;5111331;28;20109;-62
2021/12/12 01:49:21;;;;;;;58.28;32.60;;;4.10;99.90;;;;;;5116151;28;20046;-62
2021/12/12 01:51:49;;;;;;;56.80;31.70;;;4.10;99.90;;;;;;5116454;28;20053;-62
2021/12/12 01:54:19;;;;;;;54.45;31.80;;;4.10;99.90;;;;;;5116179;28;20027;-62
2021/12/12 01:56:53;;;;;;;62.42;32.40;;;4.10;99.90;;;;;;5116114;28;20054;-62
2021/12/12 01:59:23;;;;;;;63.90;30.35;;;4.10;99.90;;;;;;5116278;28;20129;-63
2021/12/12 02:01:54;;;;;;;55.17;31.42;;;4.10;99.90;;;;;;5116361;28;20036;-62
2021/12/12 02:04:32;;;;;;;56.58;31.73;;;4.10;99.90;;;;;;5115898;28;20151;-63
2021/12/12 02:06:59;;;;;;;61.50;32.33;;;4.10;99.90;;;;;;5115976;28;20126;-62
2021/12/12 02:09:25;;;;;;;49.00;30.60;;;4.10;99.90;;;;;;5115977;28;20054;-62
2021/12/12 02:11:56;;;;;;;64.28;31.38;;;4.20;99.90;;;;;;5115785;28;20465;-62
2021/12/12 02:14:23;;;;;;;53.97;30.30;;;4.20;99.90;;;;;;5115924;28;20126;-62
2021/12/12 02:17:00;;;;;;;67.80;30.50;;;4.20;99.90;;;;;;5114584;28;20040;-62
2021/12/12 02:19:37;;;;;;;60.63;29.20;;;4.20;99.90;;;;;;5115851;28;20071;-62
2021/12/12 02:35:59;;;;;;;53.67;29.33;;;4.30;99.90;;;;;;5115486;28;20051;-63
2021/12/12 02:38:29;;;;;;;48.75;28.30;;;4.30;99.90;;;;;;5115418;28;20039;-62
2021/12/12 02:41:06;;;;;;;54.60;28.95;;;4.30;99.90;;;;;;5115452;28;20152;-63
2021/12/12 02:43:35;;;;;;;61.15;27.52;;;4.30;99.90;;;;;;5115233;28;20539;-62
2021/12/12 02:46:02;;;;;;;55.80;28.98;;;4.30;99.90;;;;;;5115423;28;20484;-62
2021/12/12 02:48:32;;;;;;;52.78;27.58;;;4.30;99.90;;;;;;5115089;28;20501;-62
2021/12/12 02:51:04;;;;;;;52.50;28.83;;;4.30;99.90;;;;;;5115103;28;20035;-62
2021/12/12 02:53:55;;;;;;;61.63;29.15;;;4.40;99.90;;;;;;5114977;28;20485;-62
2021/12/12 02:56:33;;;;;;;55.22;26.80;;;4.40;99.90;;;;;;5072085;28;20060;-62
2021/12/12 02:59:00;;;;;;;55.75;27.02;;;4.40;99.90;;;;;;5071952;28;20098;-62
2021/12/12 03:01:55;;;;;;;55.85;27.52;;;4.40;99.90;;;;;;5072125;28;20045;-62
2021/12/12 03:04:22;;;;;;;49.05;25.48;;;4.40;99.90;;;;;;5067873;28;20574;-62
2021/12/12 03:06:48;;;;;;;50.45;25.35;;;4.50;99.90;;;;;;5054979;28;20101;-62
2021/12/12 03:09:25;;;;;;;56.50;25.85;;;4.50;99.90;;;;;;5072078;28;20119;-62
2021/12/12 03:11:56;;;;;;;55.33;25.52;;;4.50;99.90;;;;;;5071954;28;20053;-62
2021/12/12 03:14:22;;;;;;;50.33;26.38;;;4.50;99.90;;;;;;5072029;28;20052;-62
2021/12/12 03:16:48;;;;;;;46.90;25.25;;;4.50;99.90;;;;;;5071778;28;20037;-62
2021/12/12 03:19:19;;;;;;;45.55;24.33;;;4.60;99.90;;;;;;5071749;28;20182;-61
2021/12/12 03:21:46;;;;;;;51.08;25.50;;;4.60;99.90;;;;;;5071814;28;20482;-62
2021/12/12 03:24:19;;;;;;;43.78;24.30;;;4.60;99.90;;;;;;5055066;28;20083;-62
2021/12/12 03:26:47;;;;;;;48.60;24.10;;;4.60;99.90;;;;;;5071767;28;20406;-62
2021/12/12 03:29:13;;;;;;;47.75;22.95;;;4.70;99.90;;;;;;5071652;28;20045;-62
2021/12/12 03:31:45;;;;;;;42.33;21.40;;;4.70;99.90;;;;;;5071535;28;20482;-62
2021/12/12 03:34:15;;;;;;;43.65;23.70;;;4.70;99.90;;;;;;5108717;28;20056;-62
2021/12/12 03:36:43;;;;;;;41.92;22.65;;;4.70;99.90;;;;;;5114154;28;20040;-62
2021/12/12 03:39:15;;;;;;;39.45;21.10;;;4.80;99.90;;;;;;5114167;28;20047;-61
2021/12/12 03:41:42;;;;;;;39.10;21.88;;;4.80;99.90;;;;;;5114271;28;20062;-62
2021/12/12 03:44:12;;;;;;;41.72;22.65;;;4.80;99.90;;;;;;5114191;28;20036;-62
2021/12/12 03:46:39;;;;;;;42.17;22.48;;;4.80;99.90;;;;;;5114177;28;20036;-62
2021/12/12 03:49:07;;;;;;;39.85;22.33;;;4.80;99.90;;;;;;5112886;28;20043;-62
2021/12/12 03:51:35;;;;;;;34.80;21.25;;;4.80;99.90;;;;;;5114033;28;20071;-62
2021/12/12 03:54:01;;;;;;;36.17;18.97;;;4.90;99.90;;;;;;5113784;28;20090;-62
2021/12/12 03:56:27;;;;;;;38.67;20.20;;;4.90;99.90;;;;;;5113857;28;20096;-62
2021/12/12 03:58:52;;;;;;;35.33;20.27;;;4.90;99.90;;;;;;5113977;27;20031;-62
2021/12/12 04:01:29;;;;;;;38.53;19.50;;;4.90;99.90;;;;;;5113860;28;20084;-62
2021/12/12 04:03:59;;;;;;;35.42;20.63;;;4.90;99.90;;;;;;5113807;28;20096;-62
2021/12/12 04:06:29;;;;;;;32.42;17.83;;;5.00;99.90;;;;;;5113799;28;20063;-62
2021/12/12 04:08:56;;;;;;;32.42;17.80;;;5.00;99.90;;;;;;5113618;28;20438;-62
2021/12/12 04:11:35;;;;;;;30.33;18.33;;;5.00;99.90;;;;;;5113010;28;20047;-62
2021/12/12 04:14:03;;;;;;;32.95;18.15;;;5.00;99.90;;;;;;5113577;28;20036;-62
2021/12/12 04:16:32;;;;;;;31.75;18.25;;;5.00;99.90;;;;;;5113434;28;20047;-62
2021/12/12 04:18:58;;;;;;;29.40;17.70;;;5.00;99.90;;;;;;5113342;28;20123;-62
2021/12/12 04:21:26;;;;;;;27.55;16.00;;;5.00;99.90;;;;;;5113617;28;20130;-63
2021/12/12 04:23:53;;;;;;;27.65;16.58;;;5.00;99.90;;;;;;5113315;28;20043;-62
2021/12/12 04:26:25;;;;;;;26.48;16.20;;;4.90;99.90;;;;;;5113216;28;20031;-62
2021/12/12 04:29:04;;;;;;;28.55;17.15;;;5.00;99.90;;;;;;5113257;28;20046;-62
2021/12/12 04:31:30;;;;;;;26.73;16.08;;;5.00;99.90;;;;;;5113431;28;20093;-62
2021/12/12 04:33:56;;;;;;;22.08;16.23;;;5.00;99.90;;;;;;5113278;28;20489;-62
2021/12/12 04:36:32;;;;;;;23.52;14.90;;;5.00;99.90;;;;;;5113044;28;20087;-63
2021/12/12 04:39:02;;;;;;;26.25;17.80;;;5.00;99.90;;;;;;5113275;28;20131;-62
2021/12/12 04:41:28;;;;;;;26.48;16.50;;;5.10;99.90;;;;;;5113021;28;20509;-62
2021/12/12 04:43:54;;;;;;;23.45;14.55;;;5.00;99.90;;;;;;5112987;28;20074;-62
2021/12/12 04:46:26;;;;;;;28.13;15.68;;;5.00;99.90;;;;;;5112964;28;20039;-62
2021/12/12 04:51:49;;;;;;;23.40;13.98;;;5.00;99.90;;;;;;5112998;28;20126;-62
2021/12/12 04:55:08;;;;;;;20.35;14.45;;;5.10;99.90;;;;;;5112819;28;20039;-63
2021/12/12 04:57:39;;;;;;;19.42;12.95;;;5.10;99.90;;;;;;5069550;28;20153;-63
2021/12/12 05:00:11;;;;;;;21.75;14.60;;;5.10;99.90;;;;;;5069722;28;20064;-63
2021/12/12 05:03:06;;;;;;;19.52;13.32;;;5.10;99.90;;;;;;5069694;28;20410;-62
2021/12/12 05:05:39;;;;;;;19.20;12.95;;;5.10;99.90;;;;;;4990324;28;20542;-63
2021/12/12 05:08:13;;;;;;;20.35;12.93;;;5.10;99.90;;;;;;4990259;28;20050;-62
2021/12/12 05:10:50;;;;;;;19.17;11.85;;;5.10;99.90;;;;;;4990287;28;20065;-63
2021/12/12 05:13:21;;;;;;;19.92;11.65;;;5.10;99.90;;;;;;4990431;28;20449;-62
2021/12/12 05:15:51;;;;;;;17.10;12.00;;;5.10;99.90;;;;;;4974070;28;20054;-62
2021/12/12 05:18:29;;;;;;;16.73;11.85;;;5.10;99.90;;;;;;4990197;28;20133;-63
2021/12/12 05:21:03;;;;;;;15.95;10.60;;;5.10;99.90;;;;;;4990168;28;20051;-62
2021/12/12 05:23:32;;;;;;;12.80;9.52;;;5.10;99.90;;;;;;4990127;28;20054;-63
2021/12/12 05:26:03;;;;;;;15.50;10.70;;;5.20;99.90;;;;;;4990198;28;20057;-62
2021/12/12 05:28:37;;;;;;;16.15;11.18;;;5.20;99.90;;;;;;4990109;28;20048;-62
2021/12/12 05:31:06;;;;;;;13.55;10.07;;;5.30;99.90;;;;;;4990053;28;20050;-62
2021/12/12 05:33:32;;;;;;;14.65;10.05;;;5.30;99.90;;;;;;5037753;28;20080;-63
2021/12/12 05:35:59;;;;;;;15.18;10.10;;;5.30;99.90;;;;;;5049302;28;20048;-62
2021/12/12 05:38:26;;;;;;;13.75;10.30;;;5.30;99.90;;;;;;5049355;28;20055;-63
2021/12/12 05:40:52;;;;;;;14.32;9.88;;;5.30;99.90;;;;;;5049503;28;20037;-63
2021/12/12 05:43:19;;;;;;;13.07;10.15;;;5.30;99.90;;;;;;5102245;28;20504;-63
2021/12/12 05:45:46;;;;;;;13.07;10.27;;;5.40;99.90;;;;;;5112322;28;20043;-63
2021/12/12 05:48:13;;;;;;;12.60;10.23;;;5.40;99.90;;;;;;5112064;28;20092;-63
2021/12/12 05:50:40;;;;;;;12.60;10.55;;;5.40;99.90;;;;;;5112098;28;20043;-62
2021/12/12 05:53:07;;;;;;;14.52;11.15;;;5.40;99.90;;;;;;5112272;28;20039;-62
2021/12/12 05:55:36;;;;;;;13.73;10.55;;;5.50;99.90;;;;;;5112128;28;20046;-62
2021/12/12 05:58:05;;;;;;;16.42;11.35;;;5.50;99.90;;;;;;5111743;28;20049;-62
2021/12/12 06:00:33;;;;;;;;;;;5.50;99.90;;;;;;5112519;28;20047;-62
2021/12/12 06:02:59;;;;;;;13.40;10.65;;;5.50;99.90;;;;;;5111786;28;19923;-62
2021/12/12 06:05:26;;;;;;;18.17;11.95;;;5.60;99.90;;;;;;5111740;28;20055;-62
2021/12/12 06:07:55;;;;;;;16.25;12.90;;;5.60;99.90;;;;;;5110784;28;20743;-62
2021/12/12 06:10:22;;;;;;;18.60;11.88;;;5.60;99.90;;;;;;5111809;28;20032;-62
2021/12/12 06:12:48;;;;;;;14.77;12.07;;;5.60;99.90;;;;;;5111879;28;20035;-62
2021/12/12 06:15:17;;;;;;;15.02;11.55;;;5.60;99.90;;;;;;5111722;28;20079;-63
2021/12/12 06:17:45;;;;;;;18.20;11.85;;;5.60;99.90;;;;;;5110429;28;20040;-62
2021/12/12 06:20:13;;;;;;;16.63;11.68;;;5.60;99.90;;;;;;5111711;28;20043;-63
2021/12/12 06:22:39;;;;;;;16.30;12.30;;;5.60;99.90;;;;;;5111803;28;20122;-63
2021/12/12 06:25:07;;;;;;;16.08;11.80;;;5.60;99.90;;;;;;5110693;28;20051;-63
2021/12/12 06:27:33;;;;;;;16.33;11.35;;;5.60;99.90;;;;;;5111615;28;20039;-62
2021/12/12 06:29:59;;;;;;;17.58;11.68;;;5.70;99.90;;;;;;5111493;28;20096;-61
2021/12/12 06:32:25;;;;;;;16.75;11.80;;;5.70;99.90;;;;;;5111734;28;20035;-62
2021/12/12 06:34:54;;;;;;;15.52;11.27;;;5.70;99.90;;;;;;5114969;28;20092;-62
2021/12/12 06:37:20;;;;;;;15.57;11.98;;;5.70;99.90;;;;;;5115346;28;20052;-62
2021/12/12 06:39:47;;;;;;;17.25;11.95;;;5.70;99.90;;;;;;5115432;28;20046;-62
2021/12/12 06:42:13;;;;;;;14.45;11.60;;;5.80;99.90;;;;;;5115383;27;20456;-61
2021/12/12 06:44:41;;;;;;;16.27;11.40;;;5.80;99.90;;;;;;5115228;28;20032;-62
2021/12/12 06:47:09;;;;;;;17.63;11.15;;;5.80;99.90;;;;;;5114287;28;20412;-62
2021/12/12 06:49:37;;;;;;;16.02;11.30;;;5.80;99.90;;;;;;5115422;28;20081;-62
2021/12/12 06:52:05;;;;;;;14.50;11.85;;;5.90;99.90;;;;;;5115303;28;20140;-62
2021/12/12 06:54:32;;;;;;;16.15;12.23;;;5.90;99.90;;;;;;5114905;28;20047;-62
2021/12/12 06:57:01;;;;;;;14.57;11.93;;;5.90;99.90;;;;;;5115069;28;20085;-60
2021/12/12 06:59:30;;;;;;;15.75;11.93;;;5.90;99.90;;;;;;5114976;28;20446;-61
2021/12/12 07:01:56;;;;;;;14.43;11.75;;;6.00;99.90;;;;;;5115223;28;20077;-61
2021/12/12 07:04:23;;;;;;;16.52;12.63;;;6.00;99.90;;;;;;5114945;28;20114;-62
2021/12/12 07:06:54;;;;;;;23.27;13.00;;;6.00;99.90;;;;;;5114657;28;20170;-62
2021/12/12 07:09:21;;;;;;;17.65;12.43;;;6.00;99.90;;;;;;5114851;28;20441;-62
2021/12/12 07:11:47;;;;;;;17.17;12.82;;;6.00;99.90;;;;;;5114718;28;20039;-62
2021/12/12 07:14:15;;;;;;;16.45;12.30;;;6.00;99.90;;;;;;5114848;28;20050;-62
2021/12/12 07:16:42;;;;;;;18.38;13.45;;;6.00;99.90;;;;;;5114693;28;20393;-62
2021/12/12 07:19:08;;;;;;;16.02;12.70;;;6.00;99.90;;;;;;5114717;28;20040;-61
2021/12/12 07:21:36;;;;;;;14.90;12.63;;;6.10;99.90;;;;;;5114572;28;20127;-62
2021/12/12 07:24:04;;;;;;;17.98;12.30;;;6.10;99.90;;;;;;5114454;28;20124;-62
2021/12/12 07:26:30;;;;;;;20.38;14.25;;;6.10;99.90;;;;;;5114165;28;20071;-62
2021/12/12 07:28:58;;;;;;;19.83;14.00;;;6.10;99.90;;;;;;5114362;28;20035;-61
2021/12/12 07:31:27;;;;;;;17.20;13.68;;;6.10;99.90;;;;;;5114142;28;20057;-62
2021/12/12 07:33:56;;;;;;;19.20;13.40;;;6.20;99.90;;;;;;5114256;28;20047;-62
2021/12/12 07:36:23;;;;;;;18.60;13.68;;;6.10;99.90;;;;;;5113999;28;20071;-62
2021/12/12 07:38:54;;;;;;;22.17;14.68;;;6.20;99.90;;;;;;5114087;28;20036;-62
2021/12/12 07:41:22;;;;;;;19.85;14.23;;;6.20;99.90;;;;;;5114291;28;20118;-61
2021/12/12 07:43:48;;;;;;;19.70;13.52;;;6.20;99.90;;;;;;5113966;28;20488;-61
2021/12/12 07:46:14;;;;;;;17.83;13.00;;;6.20;99.90;;;;;;5112894;28;20116;-62
2021/12/12 07:48:44;;;;;;;21.42;14.10;;;6.20;99.90;;;;;;5114127;28;20036;-62
2021/12/12 07:51:10;;;;;;;19.15;13.35;;;6.30;99.90;;;;;;5113691;28;20039;-62
2021/12/12 07:53:36;;;;;;;19.38;14.27;;;6.30;99.90;;;;;;5113717;28;20557;-62
2021/12/12 07:56:02;;;;;;;19.73;13.55;;;6.30;99.90;;;;;;5113926;27;20130;-63
2021/12/12 07:58:27;;;;;;;19.95;14.40;;;6.30;99.90;;;;;;5113737;28;20404;-63
2021/12/12 08:00:56;;;;;;;24.15;15.43;;;6.40;99.90;;;;;;5112484;28;20038;-62
2021/12/12 08:03:26;;;;;;;20.67;14.45;;;6.40;99.90;;;;;;5113635;28;20047;-62
2021/12/12 08:05:52;;;;;;;23.42;14.43;;;6.40;99.90;;;;;;5113383;28;20051;-62
2021/12/12 08:08:19;;;;;;;19.85;13.70;;;6.40;99.90;;;;;;5113568;28;20042;-63
2021/12/12 08:10:49;;;;;;;18.40;13.80;;;6.50;99.90;;;;;;5113605;28;20042;-63
2021/12/12 08:13:16;;;;;;;20.70;14.63;;;6.50;99.90;;;;;;5113368;28;20071;-64
2021/12/12 08:15:42;;;;;;;19.90;14.45;;;6.50;99.90;;;;;;5113405;28;20039;-63
2021/12/12 08:18:11;;;;;;;21.25;14.80;;;6.50;99.90;;;;;;5113447;28;20036;-63
2021/12/12 08:20:38;;;;;;;21.30;14.90;;;6.50;99.90;;;;;;5113316;28;20028;-62
2021/12/12 08:23:05;;;;;;;19.75;13.93;;;6.60;99.90;;;;;;5113455;28;20102;-63
2021/12/12 08:25:32;;;;;;;21.73;14.82;;;6.60;99.90;;;;;;5113381;28;20050;-63
2021/12/12 08:28:02;;;;;;;20.58;14.88;;;6.60;99.90;;;;;;5112181;27;20453;-63
2021/12/12 08:30:30;;;;;;;24.88;16.63;;;6.60;99.90;;;;;;5113336;28;20088;-63
2021/12/12 08:32:57;;;;;;;21.25;15.10;;;6.60;99.90;;;;;;5113058;28;20048;-63
2021/12/12 08:35:25;;;;;;;24.35;15.00;;;6.60;99.90;;;;;;5112911;28;20488;-62
2021/12/12 08:37:51;;;;;;;23.83;16.30;;;6.60;99.90;;;;;;5113126;28;20085;-63
2021/12/12 08:40:22;;;;;;;25.30;16.83;;;6.70;99.90;;;;;;5113124;28;20095;-63
2021/12/12 08:42:49;;;;;;;27.30;16.73;;;6.70;99.90;;;;;;5113055;28;20047;-63
2021/12/12 08:45:18;;;;;;;26.20;17.05;;;6.70;99.90;;;;;;5112864;28;20043;-62
2021/12/12 08:47:46;;;;;;;27.40;16.80;;;6.70;99.90;;;;;;5112850;28;20080;-63
2021/12/12 08:50:15;;;;;;;27.83;17.15;;;6.80;99.90;;;;;;5112979;28;20038;-62
2021/12/12 08:52:45;;;;;;;26.92;17.73;;;6.70;99.90;;;;;;5113082;28;20157;-63
2021/12/12 08:55:19;;;;;;;23.85;17.00;;;6.80;99.90;;;;;;5112679;28;20036;-61
2021/12/12 09:00:37;;;;;;;29.65;17.85;;;6.80;99.90;;;;;;5069794;28;20505;-62
2021/12/12 09:03:04;;;;;;;28.77;18.08;;;6.80;99.90;;;;;;5069940;28;20055;-62
2021/12/12 09:05:35;;;;;;;27.33;17.60;;;6.90;99.90;;;;;;5069788;28;20086;-62
2021/12/12 09:08:08;;;;;;;33.53;19.52;;;6.90;99.90;;;;;;5069837;28;20048;-62
2021/12/12 09:11:03;;;;;;;31.77;18.33;;;6.90;99.90;;;;;;5070039;28;20155;-61
2021/12/12 09:13:35;;;;;;;32.75;19.38;;;6.90;99.90;;;;;;4971177;28;20121;-62
2021/12/12 09:16:09;;;;;;;33.08;19.27;;;6.90;99.90;;;;;;4971125;28;20050;-61
2021/12/12 09:18:47;;;;;;;37.90;20.70;;;6.90;99.90;;;;;;4971078;28;20093;-62
2021/12/12 09:21:24;;;;;;;36.83;21.50;;;7.00;99.90;;;;;;4971014;28;20049;-63
2021/12/12 09:24:10;;;;;;;35.17;21.23;;;7.10;99.90;;;;;;4971126;28;20130;-62
2021/12/12 09:26:46;;;;;;;38.45;22.38;;;7.10;99.90;;;;;;4970986;28;20575;-61
2021/12/12 09:29:24;;;;;;;42.58;22.60;;;7.10;99.90;;;;;;4970944;28;20121;-61
2021/12/12 09:32:08;;;;;;;38.50;21.88;;;7.20;99.90;;;;;;4970820;28;20055;-62
2021/12/12 09:34:40;;;;;;;44.25;22.27;;;7.20;99.90;;;;;;4970992;28;20051;-62
2021/12/12 09:37:15;;;;;;;44.70;23.63;;;7.20;99.90;;;;;;4987323;28;20450;-61
2021/12/12 09:39:49;;;;;;;45.75;23.60;;;7.20;99.90;;;;;;5029734;28;20041;-62
2021/12/12 09:42:38;;;;;;;47.30;24.00;;;7.30;99.90;;;;;;5029559;28;20123;-61
2021/12/12 09:45:40;;;;;;;51.45;24.15;;;7.30;99.90;;;;;;5029683;28;20037;-61
2021/12/12 09:51:37;;;;;;;65.38;26.65;;;7.40;99.90;;;;;;5106975;28;20043;-61
2021/12/12 09:54:29;;;;;;;55.03;26.83;;;7.40;99.90;;;;;;5112180;28;20115;-61
2021/12/12 09:57:26;;;;;;;59.28;25.77;;;7.40;99.90;;;;;;5112204;28;20101;-61
2021/12/12 10:00:06;;;;;;;57.13;27.02;;;7.50;99.90;;;;;;5112255;28;20032;-61
2021/12/12 10:02:41;;;;;;;61.25;29.58;;;7.60;99.90;;;;;;5112086;28;20115;-61
2021/12/12 10:05:12;;;;;;;76.38;30.33;;;7.60;99.90;;;;;;5112050;28;20434;-61
2021/12/12 10:08:16;;;;;;;73.43;29.33;;;7.60;99.90;;;;;;5112091;28;20040;-61
2021/12/12 10:10:57;;;;;;;71.95;29.27;;;7.60;99.90;;;;;;5115976;28;20046;-60
2021/12/12 10:13:41;;;;;;;62.72;27.88;;;7.70;99.90;;;;;;5115791;28;20485;-61
2021/12/12 10:16:19;;;;;;;61.53;26.77;;;7.70;99.90;;;;;;5115814;28;20477;-61
2021/12/12 10:18:47;;;;;;;66.60;29.20;;;7.70;99.90;;;;;;5115836;28;20032;-61
2021/12/12 10:21:26;;;;;;;58.92;27.95;;;7.80;99.90;;;;;;5115592;28;20533;-61
2021/12/12 10:23:55;;;;;;;56.72;27.17;;;7.80;99.90;;;;;;5115963;28;20042;-61
2021/12/12 10:26:25;;;;;;;;;;;7.90;99.90;;;;;;5116174;28;20048;-61
2021/12/12 10:28:58;;;;;;;60.20;26.50;;;7.90;99.90;;;;;;5115616;28;20005;-61
2021/12/12 10:31:35;;;;;;;77.43;29.75;;;7.90;99.90;;;;;;5116217;28;20196;-61
2021/12/12 10:34:17;;;;;;;77.72;28.63;;;7.90;99.90;;;;;;5115569;28;20040;-61
2021/12/12 10:36:49;;;;;;;60.22;27.67;;;8.00;99.90;;;;;;5115617;27;20036;-62
2021/12/12 10:39:47;;;;;;;83.13;29.10;;;8.00;99.90;;;;;;5115528;28;20152;-62
2021/12/12 10:42:18;;;;;;;84.43;28.65;;;8.00;99.90;;;;;;5072386;28;20056;-61
2021/12/12 10:44:50;;;;;;;67.97;29.15;;;8.10;99.90;;;;;;5072612;28;20037;-62
2021/12/12 10:47:47;;;;;;;73.25;28.85;;;8.10;99.90;;;;;;5072555;28;20549;-62
2021/12/12 10:50:41;;;;;;;61.85;26.40;;;8.10;99.90;;;;;;5072442;28;20075;-62
2021/12/12 10:53:30;;;;;;;72.47;28.65;;;8.10;99.90;;;;;;5072546;28;20095;-62
2021/12/12 10:56:09;;;;;;;82.57;29.52;;;8.10;99.90;;;;;;5072171;28;20051;-62
2021/12/12 10:58:44;;;;;;;62.85;27.65;;;8.20;99.90;;;;;;5072213;28;20037;-61
2021/12/12 11:01:18;;;;;;;61.45;27.13;;;8.20;99.90;;;;;;5072394;28;20048;-62
2021/12/12 11:03:52;;;;;;;65.35;28.35;;;8.20;99.90;;;;;;5072209;28;20152;-61
2021/12/12 11:06:33;;;;;;;72.32;27.48;;;8.30;99.90;;;;;;5072044;28;20136;-62
2021/12/12 11:09:07;;;;;;;62.88;27.02;;;8.30;99.90;;;;;;5072111;28;20119;-61
2021/12/12 11:11:58;;;;;;;52.08;24.23;;;8.30;99.90;;;;;;5071951;28;20072;-61
2021/12/12 11:14:30;;;;;;;59.33;25.65;;;8.30;99.90;;;;;;5072043;28;20044;-62
2021/12/12 11:17:10;;;;;;;58.15;25.48;;;8.40;99.90;;;;;;5071885;28;20037;-62
2021/12/12 11:19:45;;;;;;;57.03;25.35;;;8.40;99.90;;;;;;5105449;28;20074;-61
2021/12/12 11:22:24;;;;;;;56.83;24.85;;;8.40;99.90;;;;;;5114467;28;20039;-62
2021/12/12 11:25:20;;;;;;;57.85;24.88;;;8.50;99.90;;;;;;5114604;28;20079;-62
2021/12/12 11:27:52;;;;;;;74.82;27.27;;;8.50;99.90;;;;;;5112496;28;20077;-61
2021/12/12 11:30:26;;;;;;;57.13;24.65;;;8.60;99.90;;;;;;5114514;28;20047;-61
2021/12/12 11:32:55;;;;;;;67.38;25.60;;;8.60;99.90;;;;;;5114240;28;20534;-61
2021/12/12 11:35:24;;;;;;;52.08;23.60;;;8.70;99.90;;;;;;5114322;28;20133;-61
2021/12/12 11:38:06;;;;;;;61.55;24.55;;;8.70;99.90;;;;;;5114367;28;20046;-62
2021/12/12 11:40:32;;;;;;;52.15;23.17;;;8.70;99.90;;;;;;5114175;28;20038;-62
2021/12/12 11:43:08;;;;;;;56.97;23.70;;;8.70;99.90;;;;;;5114357;28;20393;-62
2021/12/12 11:45:41;;;;;;;74.72;25.42;;;8.80;99.90;;;;;;5114344;28;20031;-61
2021/12/12 11:48:39;;;;;;;65.43;25.77;;;8.80;99.90;;;;;;5114097;28;20047;-62
2021/12/12 11:51:21;;;;;;;50.10;22.52;;;8.80;99.90;;;;;;5114033;28;20039;-61
2021/12/12 11:54:12;;;;;;;50.80;22.48;;;8.80;99.90;;;;;;5114165;28;20122;-61
2021/12/12 11:56:45;;;;;;;56.58;24.60;;;8.80;99.90;;;;;;5113939;28;20042;-61
2021/12/12 11:59:22;;;;;;;51.33;22.00;;;8.80;99.90;;;;;;5113854;27;20136;-61
2021/12/12 12:01:51;;;;;;;63.38;24.05;;;8.80;99.90;;;;;;5113745;28;20124;-61
2021/12/12 12:04:35;;;;;;;54.72;22.67;;;8.90;99.90;;;;;;5113933;28;20392;-61
2021/12/12 12:07:20;;;;;;;45.10;20.67;;;8.90;99.90;;;;;;5113615;28;20058;-61
2021/12/12 12:10:03;;;;;;;50.10;21.75;;;8.90;99.90;;;;;;5113961;28;20091;-61
2021/12/12 12:12:50;;;;;;;42.33;20.45;;;8.90;99.90;;;;;;5113878;28;20047;-61
2021/12/12 12:15:37;;;;;;;44.00;19.95;;;8.90;99.90;;;;;;5113578;28;20043;-61
2021/12/12 12:18:33;;;;;;;37.40;19.52;;;9.00;99.90;;;;;;5113476;28;20050;-62
2021/12/12 12:21:30;;;;;;;42.83;19.65;;;9.00;99.90;;;;;;5113482;28;20129;-61
2021/12/12 12:24:28;;;;;;;44.42;19.33;;;9.00;99.90;;;;;;5113305;28;20046;-61
2021/12/12 12:27:03;;;;;;;42.75;21.20;;;9.10;99.90;;;;;;5113823;28;20809;-61
2021/12/12 12:29:28;;;;;;;40.17;19.55;;;9.10;99.90;;;;;;5113431;28;20039;-61
2021/12/12 12:32:31;;;;;;;38.15;18.67;;;9.10;99.90;;;;;;5112693;28;20096;-61
2021/12/12 12:35:16;;;;;;;38.80;18.70;;;9.10;99.90;;;;;;5113440;28;20039;-61
2021/12/12 12:38:09;;;;;;;38.70;17.63;;;9.10;99.90;;;;;;5113149;28;20127;-62
2021/12/12 12:40:37;;;;;;;38.13;18.00;;;9.20;99.90;;;;;;5113095;28;20401;-62
2021/12/12 12:43:40;;;;;;;36.80;17.73;;;9.20;99.90;;;;;;5113037;28;20039;-62
2021/12/12 12:46:37;;;;;;;36.75;17.25;;;9.20;99.90;;;;;;5113081;28;20039;-62
2021/12/12 12:49:50;;;;;;;35.22;16.27;;;9.20;99.90;;;;;;5112940;28;20435;-62
2021/12/12 12:52:37;;;;;;;32.85;16.50;;;9.30;99.90;;;;;;5111624;28;20065;-63
2021/12/12 12:55:27;;;;;;;35.08;16.17;;;9.30;99.90;;;;;;5112866;28;20040;-62
2021/12/12 12:58:03;;;;;;;37.42;15.90;;;9.30;99.90;;;;;;5113048;28;20100;-62
2021/12/12 13:00:32;;;;;;;33.70;16.20;;;9.30;99.90;;;;;;5113046;28;20074;-62
2021/12/12 13:03:24;;;;;;;28.23;14.80;;;9.30;99.90;;;;;;5113105;28;20035;-62
2021/12/12 13:06:03;;;;;;;29.85;15.73;;;9.40;99.90;;;;;;5112373;28;20071;-63
2021/12/12 13:08:51;;;;;;;30.10;15.23;;;9.40;99.90;;;;;;5112733;28;20055;-63
2021/12/12 13:11:27;;;;;;;26.63;14.50;;;9.40;99.90;;;;;;5112586;28;20043;-62
2021/12/12 13:14:05;;;;;;;31.38;14.85;;;9.40;99.90;;;;;;5112558;28;20048;-62
2021/12/12 13:16:41;;;;;;;27.00;14.65;;;9.40;99.90;;;;;;5112348;28;20036;-62
2021/12/12 13:19:18;;;;;;;29.63;14.55;;;9.40;99.90;;;;;;5111487;27;20044;-62
2021/12/12 13:22:02;;;;;;;26.38;14.13;;;9.50;99.90;;;;;;5112371;28;20549;-61
2021/12/12 13:25:10;;;;;;;28.42;14.32;;;9.50;99.90;;;;;;5112455;28;20050;-62
2021/12/12 13:28:05;;;;;;;29.10;15.20;;;9.50;99.90;;;;;;5112610;28;20082;-62
2021/12/12 13:30:50;;;;;;;34.80;16.05;;;9.50;99.90;;;;;;5112263;28;20031;-61
2021/12/12 13:33:26;;;;;;;37.35;15.63;;;9.50;99.90;;;;;;5112669;28;20039;-61